sensor_id;sensor_type;location;lat;lon;timestamp;temperature;humidity
44573;DHT22;31762;45.420;10.072;2022-11-18T00:04:04;11.80;99.90
44573;DHT22;31762;45.420;10.072;2022-11-18T00:09:06;11.80;99.90
44573;DHT22;31762;45.420;10.072;2022-11-18T00:14:13;11.90;99.90
44573;DHT22;31762;45.420;10.072;2022-11-18T00:19:15;11.90;99.90
44573;DHT22;31762;45.420;10.072;2022-11-18T00:24:18;11.90;99.90
44573;DHT22;31762;45.420;10.072;2022-11-18T00:29:20;11.90;99.90
44573;DHT22;31762;45.420;10.072;2022-11-18T00:34:23;11.90;99.90
44573;DHT22;31762;45.420;10.072;2022-11-18T00:39:25;11.90;99.90
44573;DHT22;31762;45.420;10.072;2022-11-18T00:44:27;11.80;99.90
44573;DHT22;31762;45.420;10.072;2022-11-18T00:49:28;11.80;99.90
44573;DHT22;31762;45.420;10.072;2022-11-18T00:54:30;11.70;99.90
44573;DHT22;31762;45.420;10.072;2022-11-18T00:59:32;11.80;99.90
44573;DHT22;31762;45.420;10.072;2022-11-18T01:04:34;11.80;99.90
44573;DHT22;31762;45.420;10.072;2022-11-18T01:09:35;11.70;99.90
44573;DHT22;31762;45.420;10.072;2022-11-18T01:14:37;11.60;99.90
44573;DHT22;31762;45.420;10.072;2022-11-18T01:19:39;11.50;99.90
44573;DHT22;31762;45.420;10.072;2022-11-18T01:24:41;11.60;99.90
44573;DHT22;31762;45.420;10.072;2022-11-18T01:29:43;11.70;99.90
44573;DHT22;31762;45.420;10.072;2022-11-18T01:34:44;11.90;99.90
44573;DHT22;31762;45.420;10.072;2022-11-18T01:39:46;11.90;99.90
44573;DHT22;31762;45.420;10.072;2022-11-18T01:45:05;11.80;99.90
44573;DHT22;31762;45.420;10.072;2022-11-18T01:50:08;11.70;99.90
44573;DHT22;31762;45.420;10.072;2022-11-18T01:55:13;11.70;99.90
44573;DHT22;31762;45.420;10.072;2022-11-18T02:00:17;11.70;99.90
44573;DHT22;31762;45.420;10.072;2022-11-18T02:05:19;11.70;99.90
44573;DHT22;31762;45.420;10.072;2022-11-18T02:10:23;11.70;99.90
44573;DHT22;31762;45.420;10.072;2022-11-18T02:16:04;11.50;99.90
44573;DHT22;31762;45.420;10.072;2022-11-18T02:21:27;11.70;99.90
44573;DHT22;31762;45.420;10.072;2022-11-18T02:32:01;11.80;99.90
44573;DHT22;31762;45.420;10.072;2022-11-18T02:37:24;11.80;99.90
44573;DHT22;31762;45.420;10.072;2022-11-18T02:42:29;11.70;99.90
44573;DHT22;31762;45.420;10.072;2022-11-18T02:47:34;11.60;99.90
44573;DHT22;31762;45.420;10.072;2022-11-18T02:52:37;11.60;99.90
44573;DHT22;31762;45.420;10.072;2022-11-18T02:57:41;11.60;99.90
44573;DHT22;31762;45.420;10.072;2022-11-18T03:02:46;11.60;99.90
44573;DHT22;31762;45.420;10.072;2022-11-18T03:07:55;11.50;99.90
44573;DHT22;31762;45.420;10.072;2022-11-18T03:13:05;11.60;99.90
44573;DHT22;31762;45.420;10.072;2022-11-18T03:24:12;11.70;99.90
44573;DHT22;31762;45.420;10.072;2022-11-18T03:29:28;11.60;99.90
44573;DHT22;31762;45.420;10.072;2022-11-18T03:34:39;11.60;99.90
44573;DHT22;31762;45.420;10.072;2022-11-18T03:39:46;11.50;99.90
44573;DHT22;31762;45.420;10.072;2022-11-18T03:44:55;11.50;99.90
44573;DHT22;31762;45.420;10.072;2022-11-18T03:50:05;11.60;99.90
44573;DHT22;31762;45.420;10.072;2022-11-18T03:55:16;11.60;99.90
44573;DHT22;31762;45.420;10.072;2022-11-18T04:00:19;11.50;99.90
44573;DHT22;31762;45.420;10.072;2022-11-18T04:05:21;11.60;99.90
44573;DHT22;31762;45.420;10.072;2022-11-18T04:10:46;11.50;99.90
44573;DHT22;31762;45.420;10.072;2022-11-18T04:15:49;11.60;99.90
44573;DHT22;31762;45.420;10.072;2022-11-18T04:20:51;11.60;99.90
44573;DHT22;31762;45.420;10.072;2022-11-18T04:25:54;11.60;99.90
44573;DHT22;31762;45.420;10.072;2022-11-18T04:30:55;11.60;99.90
44573;DHT22;31762;45.420;10.072;2022-11-18T04:35:57;11.70;99.90
44573;DHT22;31762;45.420;10.072;2022-11-18T04:40:59;11.60;99.90
44573;DHT22;31762;45.420;10.072;2022-11-18T04:46:00;11.60;99.90
44573;DHT22;31762;45.420;10.072;2022-11-18T04:51:03;11.70;99.90
44573;DHT22;31762;45.420;10.072;2022-11-18T04:56:06;11.70;99.90
44573;DHT22;31762;45.420;10.072;2022-11-18T05:01:08;11.70;99.90
44573;DHT22;31762;45.420;10.072;2022-11-18T05:06:10;11.70;99.90
44573;DHT22;31762;45.420;10.072;2022-11-18T05:11:11;11.70;99.90
44573;DHT22;31762;45.420;10.072;2022-11-18T05:16:13;11.70;99.90
44573;DHT22;31762;45.420;10.072;2022-11-18T05:21:15;11.60;99.90
44573;DHT22;31762;45.420;10.072;2022-11-18T05:26:17;11.60;99.90
44573;DHT22;31762;45.420;10.072;2022-11-18T05:31:19;11.60;99.90
44573;DHT22;31762;45.420;10.072;2022-11-18T05:36:21;11.50;99.90
44573;DHT22;31762;45.420;10.072;2022-11-18T05:41:23;11.60;99.90
44573;DHT22;31762;45.420;10.072;2022-11-18T05:46:25;11.60;99.90
44573;DHT22;31762;45.420;10.072;2022-11-18T05:51:27;11.50;99.90
44573;DHT22;31762;45.420;10.072;2022-11-18T05:56:40;11.40;99.90
44573;DHT22;31762;45.420;10.072;2022-11-18T06:01:44;11.50;99.90
44573;DHT22;31762;45.420;10.072;2022-11-18T06:06:48;11.30;99.90
44573;DHT22;31762;45.420;10.072;2022-11-18T06:11:55;11.40;99.90
44573;DHT22;31762;45.420;10.072;2022-11-18T06:16:59;11.40;99.90
44573;DHT22;31762;45.420;10.072;2022-11-18T06:22:03;11.30;99.90
44573;DHT22;31762;45.420;10.072;2022-11-18T06:27:05;11.40;99.90
44573;DHT22;31762;45.420;10.072;2022-11-18T06:32:07;11.30;99.90
44573;DHT22;31762;45.420;10.072;2022-11-18T06:37:17;11.20;99.90
44573;DHT22;31762;45.420;10.072;2022-11-18T06:42:19;11.20;99.90
44573;DHT22;31762;45.420;10.072;2022-11-18T06:47:21;11.30;99.90
44573;DHT22;31762;45.420;10.072;2022-11-18T06:52:23;11.20;99.90
44573;DHT22;31762;45.420;10.072;2022-11-18T06:57:25;11.10;99.90
44573;DHT22;31762;45.420;10.072;2022-11-18T07:02:26;11.30;99.90
44573;DHT22;31762;45.420;10.072;2022-11-18T07:07:28;11.20;99.90
44573;DHT22;31762;45.420;10.072;2022-11-18T07:12:30;11.30;99.90
44573;DHT22;31762;45.420;10.072;2022-11-18T07:17:32;11.30;99.90
44573;DHT22;31762;45.420;10.072;2022-11-18T07:22:33;11.30;99.90
44573;DHT22;31762;45.420;10.072;2022-11-18T07:27:35;11.20;99.90
44573;DHT22;31762;45.420;10.072;2022-11-18T07:32:37;11.20;99.90
44573;DHT22;31762;45.420;10.072;2022-11-18T07:37:39;11.30;99.90
44573;DHT22;31762;45.420;10.072;2022-11-18T07:42:40;11.30;99.90
44573;DHT22;31762;45.420;10.072;2022-11-18T07:47:42;11.40;99.90
44573;DHT22;31762;45.420;10.072;2022-11-18T07:52:44;11.50;99.90
44573;DHT22;31762;45.420;10.072;2022-11-18T07:57:46;11.70;99.90
44573;DHT22;31762;45.420;10.072;2022-11-18T08:02:50;11.90;99.90
44573;DHT22;31762;45.420;10.072;2022-11-18T08:07:52;11.80;99.90
44573;DHT22;31762;45.420;10.072;2022-11-18T08:12:55;12.00;99.90
44573;DHT22;31762;45.420;10.072;2022-11-18T08:17:57;12.10;99.90
44573;DHT22;31762;45.420;10.072;2022-11-18T08:22:59;12.10;99.90
44573;DHT22;31762;45.420;10.072;2022-11-18T08:28:01;12.40;99.90
44573;DHT22;31762;45.420;10.072;2022-11-18T08:33:03;12.20;99.90
44573;DHT22;31762;45.420;10.072;2022-11-18T08:38:04;12.10;99.90
44573;DHT22;31762;45.420;10.072;2022-11-18T08:43:09;12.00;99.90
44573;DHT22;31762;45.420;10.072;2022-11-18T08:48:11;12.00;99.90
44573;DHT22;31762;45.420;10.072;2022-11-18T08:53:14;12.00;99.90
44573;DHT22;31762;45.420;10.072;2022-11-18T08:58:16;12.00;99.90
44573;DHT22;31762;45.420;10.072;2022-11-18T09:03:18;12.10;99.90
44573;DHT22;31762;45.420;10.072;2022-11-18T09:08:19;12.10;99.90
44573;DHT22;31762;45.420;10.072;2022-11-18T09:13:21;12.10;99.90
44573;DHT22;31762;45.420;10.072;2022-11-18T09:18:43;12.10;99.90
44573;DHT22;31762;45.420;10.072;2022-11-18T09:23:45;12.00;99.90
44573;DHT22;31762;45.420;10.072;2022-11-18T09:28:47;12.00;99.90
44573;DHT22;31762;45.420;10.072;2022-11-18T09:33:48;12.10;99.90
44573;DHT22;31762;45.420;10.072;2022-11-18T09:38:51;12.40;99.90
44573;DHT22;31762;45.420;10.072;2022-11-18T09:49:26;12.40;99.90
44573;DHT22;31762;45.420;10.072;2022-11-18T09:54:34;12.60;99.90
44573;DHT22;31762;45.420;10.072;2022-11-18T09:59:36;13.00;99.90
44573;DHT22;31762;45.420;10.072;2022-11-18T10:04:38;13.20;99.90
44573;DHT22;31762;45.420;10.072;2022-11-18T10:09:40;13.60;99.90
44573;DHT22;31762;45.420;10.072;2022-11-18T10:24:54;13.60;99.90
44573;DHT22;31762;45.420;10.072;2022-11-18T10:29:56;13.50;99.90
44573;DHT22;31762;45.420;10.072;2022-11-18T10:34:58;13.30;99.90
44573;DHT22;31762;45.420;10.072;2022-11-18T10:40:01;13.40;99.90
44573;DHT22;31762;45.420;10.072;2022-11-18T10:45:27;13.40;99.90
44573;DHT22;31762;45.420;10.072;2022-11-18T10:50:33;13.70;99.90
44573;DHT22;31762;45.420;10.072;2022-11-18T10:55:35;13.70;99.90
44573;DHT22;31762;45.420;10.072;2022-11-18T11:00:39;13.80;99.90
44573;DHT22;31762;45.420;10.072;2022-11-18T11:05:42;13.70;99.90
44573;DHT22;31762;45.420;10.072;2022-11-18T11:11:02;13.80;99.90
44573;DHT22;31762;45.420;10.072;2022-11-18T11:16:06;13.90;99.90
44573;DHT22;31762;45.420;10.072;2022-11-18T11:21:13;14.00;99.90
44573;DHT22;31762;45.420;10.072;2022-11-18T11:26:46;13.90;99.90
44573;DHT22;31762;45.420;10.072;2022-11-18T11:37:57;14.00;99.90
44573;DHT22;31762;45.420;10.072;2022-11-18T11:48:34;14.50;99.90
44573;DHT22;31762;45.420;10.072;2022-11-18T11:54:07;14.90;99.90
44573;DHT22;31762;45.420;10.072;2022-11-18T12:04:48;14.90;99.90
44573;DHT22;31762;45.420;10.072;2022-11-18T12:20:42;15.50;99.90
44573;DHT22;31762;45.420;10.072;2022-11-18T12:30:49;15.40;99.90
44573;DHT22;31762;45.420;10.072;2022-11-18T12:35:51;15.00;99.90
44573;DHT22;31762;45.420;10.072;2022-11-18T12:40:53;15.10;99.90
44573;DHT22;31762;45.420;10.072;2022-11-18T12:45:56;15.60;99.90
44573;DHT22;31762;45.420;10.072;2022-11-18T13:01:20;15.60;99.90
44573;DHT22;31762;45.420;10.072;2022-11-18T13:06:30;15.70;99.90
44573;DHT22;31762;45.420;10.072;2022-11-18T13:11:45;15.10;99.90
44573;DHT22;31762;45.420;10.072;2022-11-18T13:16:48;15.10;99.90
44573;DHT22;31762;45.420;10.072;2022-11-18T13:21:57;15.60;99.90
44573;DHT22;31762;45.420;10.072;2022-11-18T13:26:59;15.60;99.90
44573;DHT22;31762;45.420;10.072;2022-11-18T13:32:24;15.40;99.90
44573;DHT22;31762;45.420;10.072;2022-11-18T13:37:31;15.60;99.90
44573;DHT22;31762;45.420;10.072;2022-11-18T13:42:32;15.80;99.90
44573;DHT22;31762;45.420;10.072;2022-11-18T13:58:03;15.50;99.90
44573;DHT22;31762;45.420;10.072;2022-11-18T14:03:22;15.40;99.90
44573;DHT22;31762;45.420;10.072;2022-11-18T14:08:29;15.40;99.90
44573;DHT22;31762;45.420;10.072;2022-11-18T14:13:45;15.50;99.90
44573;DHT22;31762;45.420;10.072;2022-11-18T14:18:49;15.40;99.90
44573;DHT22;31762;45.420;10.072;2022-11-18T14:23:51;15.20;99.90
44573;DHT22;31762;45.420;10.072;2022-11-18T14:28:55;15.30;99.90
44573;DHT22;31762;45.420;10.072;2022-11-18T14:34:25;15.20;99.90
44573;DHT22;31762;45.420;10.072;2022-11-18T14:39:29;15.20;99.90
44573;DHT22;31762;45.420;10.072;2022-11-18T14:44:32;15.00;99.90
44573;DHT22;31762;45.420;10.072;2022-11-18T14:49:35;14.80;99.90
44573;DHT22;31762;45.420;10.072;2022-11-18T14:54:37;14.70;99.90
44573;DHT22;31762;45.420;10.072;2022-11-18T14:59:38;14.60;99.90
44573;DHT22;31762;45.420;10.072;2022-11-18T15:04:40;15.50;99.90
44573;DHT22;31762;45.420;10.072;2022-11-18T15:09:42;15.80;99.90
44573;DHT22;31762;45.420;10.072;2022-11-18T15:14:44;15.10;99.90
44573;DHT22;31762;45.420;10.072;2022-11-18T15:19:46;14.70;99.90
44573;DHT22;31762;45.420;10.072;2022-11-18T15:24:47;14.40;99.90
44573;DHT22;31762;45.420;10.072;2022-11-18T15:29:49;14.20;99.90
44573;DHT22;31762;45.420;10.072;2022-11-18T15:34:51;14.10;99.90
44573;DHT22;31762;45.420;10.072;2022-11-18T15:39:53;13.80;99.90
44573;DHT22;31762;45.420;10.072;2022-11-18T15:44:54;13.80;99.90
44573;DHT22;31762;45.420;10.072;2022-11-18T15:49:56;13.70;99.90
44573;DHT22;31762;45.420;10.072;2022-11-18T15:54:58;13.60;99.90
44573;DHT22;31762;45.420;10.072;2022-11-18T16:00:01;13.60;99.90
44573;DHT22;31762;45.420;10.072;2022-11-18T16:05:03;13.40;99.90
44573;DHT22;31762;45.420;10.072;2022-11-18T16:10:05;13.00;99.90
44573;DHT22;31762;45.420;10.072;2022-11-18T16:15:07;12.80;99.90
44573;DHT22;31762;45.420;10.072;2022-11-18T16:20:09;12.80;99.90
44573;DHT22;31762;45.420;10.072;2022-11-18T16:25:11;12.60;99.90
44573;DHT22;31762;45.420;10.072;2022-11-18T16:30:13;12.50;99.90
44573;DHT22;31762;45.420;10.072;2022-11-18T16:35:15;12.60;99.90
44573;DHT22;31762;45.420;10.072;2022-11-18T16:40:17;12.50;99.90
44573;DHT22;31762;45.420;10.072;2022-11-18T16:45:19;12.60;99.90
44573;DHT22;31762;45.420;10.072;2022-11-18T16:50:21;12.70;99.90
44573;DHT22;31762;45.420;10.072;2022-11-18T16:55:22;12.70;99.90
44573;DHT22;31762;45.420;10.072;2022-11-18T17:00:24;12.60;99.90
44573;DHT22;31762;45.420;10.072;2022-11-18T17:05:46;12.50;99.90
44573;DHT22;31762;45.420;10.072;2022-11-18T17:10:47;12.10;99.90
44573;DHT22;31762;45.420;10.072;2022-11-18T17:15:49;12.00;99.90
44573;DHT22;31762;45.420;10.072;2022-11-18T17:20:51;12.20;99.90
44573;DHT22;31762;45.420;10.072;2022-11-18T17:25:53;11.90;99.90
44573;DHT22;31762;45.420;10.072;2022-11-18T17:30:55;12.00;99.90
44573;DHT22;31762;45.420;10.072;2022-11-18T17:36:01;11.90;99.90
44573;DHT22;31762;45.420;10.072;2022-11-18T17:41:04;11.90;99.90
44573;DHT22;31762;45.420;10.072;2022-11-18T17:46:06;11.70;99.90
44573;DHT22;31762;45.420;10.072;2022-11-18T17:51:08;11.60;99.90
44573;DHT22;31762;45.420;10.072;2022-11-18T17:56:09;11.40;99.90
44573;DHT22;31762;45.420;10.072;2022-11-18T18:01:14;11.60;99.90
44573;DHT22;31762;45.420;10.072;2022-11-18T18:06:16;11.70;99.90
44573;DHT22;31762;45.420;10.072;2022-11-18T18:11:18;11.70;99.90
44573;DHT22;31762;45.420;10.072;2022-11-18T18:16:20;11.70;99.90
44573;DHT22;31762;45.420;10.072;2022-11-18T18:21:22;11.70;99.90
44573;DHT22;31762;45.420;10.072;2022-11-18T18:26:24;11.60;99.90
44573;DHT22;31762;45.420;10.072;2022-11-18T18:31:34;11.20;99.90
44573;DHT22;31762;45.420;10.072;2022-11-18T18:36:36;11.10;99.90
44573;DHT22;31762;45.420;10.072;2022-11-18T18:41:38;11.20;99.90
44573;DHT22;31762;45.420;10.072;2022-11-18T18:46:40;11.20;99.90
44573;DHT22;31762;45.420;10.072;2022-11-18T18:51:43;11.00;99.90
44573;DHT22;31762;45.420;10.072;2022-11-18T18:56:45;11.00;99.90
44573;DHT22;31762;45.420;10.072;2022-11-18T19:01:47;11.00;99.90
44573;DHT22;31762;45.420;10.072;2022-11-18T19:06:49;11.00;99.90
44573;DHT22;31762;45.420;10.072;2022-11-18T19:12:00;11.00;99.90
44573;DHT22;31762;45.420;10.072;2022-11-18T19:17:02;10.90;99.90
44573;DHT22;31762;45.420;10.072;2022-11-18T19:22:13;10.80;99.90
44573;DHT22;31762;45.420;10.072;2022-11-18T19:27:16;10.80;99.90
44573;DHT22;31762;45.420;10.072;2022-11-18T19:32:18;10.90;99.90
44573;DHT22;31762;45.420;10.072;2022-11-18T19:37:19;10.90;99.90
44573;DHT22;31762;45.420;10.072;2022-11-18T19:42:21;10.60;99.90
44573;DHT22;31762;45.420;10.072;2022-11-18T19:47:23;10.60;99.90
44573;DHT22;31762;45.420;10.072;2022-11-18T19:52:25;10.60;99.90
44573;DHT22;31762;45.420;10.072;2022-11-18T19:57:26;10.60;99.90
44573;DHT22;31762;45.420;10.072;2022-11-18T20:02:28;10.80;99.90
44573;DHT22;31762;45.420;10.072;2022-11-18T20:07:30;10.70;99.90
44573;DHT22;31762;45.420;10.072;2022-11-18T20:12:31;10.50;99.90
44573;DHT22;31762;45.420;10.072;2022-11-18T20:17:33;10.50;99.90
44573;DHT22;31762;45.420;10.072;2022-11-18T20:22:35;10.40;99.90
44573;DHT22;31762;45.420;10.072;2022-11-18T20:27:37;10.30;99.90
44573;DHT22;31762;45.420;10.072;2022-11-18T20:32:38;10.20;99.90
44573;DHT22;31762;45.420;10.072;2022-11-18T20:37:40;10.30;99.90
44573;DHT22;31762;45.420;10.072;2022-11-18T20:42:42;10.30;99.90
44573;DHT22;31762;45.420;10.072;2022-11-18T20:47:44;10.50;99.90
44573;DHT22;31762;45.420;10.072;2022-11-18T20:52:46;10.70;99.90
44573;DHT22;31762;45.420;10.072;2022-11-18T20:57:48;10.00;99.90
44573;DHT22;31762;45.420;10.072;2022-11-18T21:02:50;10.00;99.90
44573;DHT22;31762;45.420;10.072;2022-11-18T21:07:51;10.50;99.90
44573;DHT22;31762;45.420;10.072;2022-11-18T21:12:53;10.50;99.90
44573;DHT22;31762;45.420;10.072;2022-11-18T21:17:55;10.20;99.90
44573;DHT22;31762;45.420;10.072;2022-11-18T21:22:57;10.20;99.90
44573;DHT22;31762;45.420;10.072;2022-11-18T21:27:58;10.00;99.90
44573;DHT22;31762;45.420;10.072;2022-11-18T21:33:00;10.10;99.90
44573;DHT22;31762;45.420;10.072;2022-11-18T21:38:02;10.20;99.90
44573;DHT22;31762;45.420;10.072;2022-11-18T21:43:04;10.30;99.90
44573;DHT22;31762;45.420;10.072;2022-11-18T21:48:05;10.20;99.90
44573;DHT22;31762;45.420;10.072;2022-11-18T21:53:07;10.10;99.90
44573;DHT22;31762;45.420;10.072;2022-11-18T21:58:09;10.20;99.90
44573;DHT22;31762;45.420;10.072;2022-11-18T22:03:10;10.00;99.90
44573;DHT22;31762;45.420;10.072;2022-11-18T22:08:12;9.90;99.90
44573;DHT22;31762;45.420;10.072;2022-11-18T22:13:14;10.40;99.90
44573;DHT22;31762;45.420;10.072;2022-11-18T22:18:15;10.20;99.90
44573;DHT22;31762;45.420;10.072;2022-11-18T22:23:17;10.00;99.90
44573;DHT22;31762;45.420;10.072;2022-11-18T22:28:19;9.80;99.90
44573;DHT22;31762;45.420;10.072;2022-11-18T22:33:21;9.90;99.90
44573;DHT22;31762;45.420;10.072;2022-11-18T22:38:23;9.90;99.90
44573;DHT22;31762;45.420;10.072;2022-11-18T22:43:24;10.00;99.90
44573;DHT22;31762;45.420;10.072;2022-11-18T22:48:26;10.10;99.90
44573;DHT22;31762;45.420;10.072;2022-11-18T22:53:29;10.20;99.90
44573;DHT22;31762;45.420;10.072;2022-11-18T22:58:31;10.00;99.90
44573;DHT22;31762;45.420;10.072;2022-11-18T23:03:33;10.00;99.90
44573;DHT22;31762;45.420;10.072;2022-11-18T23:08:37;10.40;99.90
44573;DHT22;31762;45.420;10.072;2022-11-18T23:13:40;10.50;99.90
44573;DHT22;31762;45.420;10.072;2022-11-18T23:18:45;10.60;99.90
44573;DHT22;31762;45.420;10.072;2022-11-18T23:23:47;10.50;99.90
44573;DHT22;31762;45.420;10.072;2022-11-18T23:28:49;10.60;99.90
44573;DHT22;31762;45.420;10.072;2022-11-18T23:33:52;10.70;99.90
44573;DHT22;31762;45.420;10.072;2022-11-18T23:38:54;10.80;99.90
44573;DHT22;31762;45.420;10.072;2022-11-18T23:43:56;10.60;99.90
44573;DHT22;31762;45.420;10.072;2022-11-18T23:48:57;10.70;99.90
44573;DHT22;31762;45.420;10.072;2022-11-18T23:53:59;10.50;99.90
44573;DHT22;31762;45.420;10.072;2022-11-18T23:59:01;10.70;99.90
